Time;durP1;ratioP1;P1;durP2;ratioP2;P2;SDS_P1;SDS_P2;PMS_P1;PMS_P2;Temp;Humidity;BMP_temperature;BMP_pressure;BME280_temperature;BME280_humidity;BME280_pressure;Samples;Min_cycle;Max_cycle;Signal;HPM_P1;HPM_P2
2022/05/25 00:02:01;;;;;;;5.03;2.55;;;12.30;99.90;;;;;;5031679;28;20376;-78
2022/05/25 00:04:27;;;;;;;5.18;2.53;;;12.30;99.90;;;;;;5022948;28;20026;-78
2022/05/25 00:06:53;;;;;;;9.23;2.50;;;12.30;99.90;;;;;;5022458;28;20025;-78
2022/05/25 00:09:18;;;;;;;6.20;2.35;;;12.20;99.90;;;;;;5031424;28;20021;-78
2022/05/25 00:11:44;;;;;;;5.50;2.35;;;12.20;99.90;;;;;;5013113;28;20482;-78
2022/05/25 00:14:10;;;;;;;4.63;2.20;;;12.20;99.90;;;;;;5014936;28;20018;-78
2022/05/25 00:16:36;;;;;;;4.03;1.95;;;12.20;99.90;;;;;;5029376;28;20025;-78
2022/05/25 00:21:46;;;;;;;6.80;2.50;;;12.20;99.90;;;;;;5011847;28;20501;-78
2022/05/25 00:24:12;;;;;;;8.00;2.60;;;12.20;99.90;;;;;;5011906;28;20022;-78
2022/05/25 00:26:38;;;;;;;4.78;2.40;;;12.20;99.90;;;;;;5011062;28;20029;-78
2022/05/25 00:29:04;;;;;;;5.80;2.60;;;12.20;99.90;;;;;;5012828;28;20394;-78
2022/05/25 00:31:30;;;;;;;8.68;2.42;;;12.20;99.90;;;;;;5018983;28;20046;-79
2022/05/25 00:33:57;;;;;;;8.18;2.60;;;12.20;99.90;;;;;;5011470;28;20038;-77
2022/05/25 00:36:23;;;;;;;7.95;2.80;;;12.20;99.90;;;;;;5028203;28;20066;-78
2022/05/25 00:38:48;;;;;;;12.15;3.00;;;12.20;99.90;;;;;;5014331;28;20547;-78
2022/05/25 00:41:14;;;;;;;8.02;2.75;;;12.20;99.90;;;;;;5014245;28;20132;-78
2022/05/25 00:43:40;;;;;;;7.00;2.90;;;12.10;99.90;;;;;;5011596;28;20029;-78
2022/05/25 00:46:10;;;;;;;10.05;3.00;;;12.20;99.90;;;;;;5009753;28;20038;-78
2022/05/25 00:48:40;;;;;;;7.45;2.75;;;12.10;99.90;;;;;;5021088;28;20084;-78
2022/05/25 00:51:21;;;;;;;8.40;3.20;;;12.10;99.90;;;;;;5015085;28;20103;-78
2022/05/25 00:54:25;;;;;;;10.95;2.90;;;12.10;99.90;;;;;;5015614;28;20026;-78
2022/05/25 00:56:53;;;;;;;7.18;2.90;;;12.10;99.90;;;;;;5033951;28;20478;-78
2022/05/25 00:59:22;;;;;;;6.95;3.15;;;12.10;99.90;;;;;;5033339;28;20561;-78
2022/05/25 01:01:48;;;;;;;6.10;2.50;;;12.10;99.90;;;;;;5034564;28;20393;-78
2022/05/25 01:04:15;;;;;;;9.93;3.42;;;12.10;99.90;;;;;;5028052;28;20417;-77
2022/05/25 01:06:46;;;;;;;10.30;3.35;;;12.00;99.90;;;;;;5015729;28;20028;-78
2022/05/25 01:09:31;;;;;;;10.55;3.70;;;12.00;99.90;;;;;;5020392;28;20045;-78
2022/05/25 01:12:21;;;;;;;12.45;3.63;;;12.00;99.90;;;;;;5025162;28;20139;-78
2022/05/25 01:15:19;;;;;;;10.90;3.90;;;12.00;99.90;;;;;;5028313;28;20101;-78
2022/05/25 01:18:03;;;;;;;12.70;3.95;;;12.00;99.90;;;;;;5026248;28;20504;-78
2022/05/25 01:20:41;;;;;;;11.25;3.65;;;12.00;99.90;;;;;;5014921;28;20033;-77
2022/05/25 01:23:44;;;;;;;13.23;4.20;;;12.00;99.90;;;;;;5014191;28;20018;-78
2022/05/25 01:26:24;;;;;;;11.63;4.05;;;12.00;99.90;;;;;;5014222;28;20018;-78
2022/05/25 01:29:02;;;;;;;15.95;5.25;;;12.00;99.90;;;;;;5013158;28;20486;-78
2022/05/25 01:31:48;;;;;;;15.77;5.93;;;12.00;99.90;;;;;;5031411;28;20383;-78
2022/05/25 01:34:16;;;;;;;16.63;6.40;;;12.00;99.90;;;;;;5015488;28;20389;-78
2022/05/25 01:37:01;;;;;;;17.67;6.53;;;12.00;99.90;;;;;;5014197;28;20041;-78
2022/05/25 01:39:31;;;;;;;18.77;7.28;;;12.00;99.90;;;;;;5014063;28;20277;-78
2022/05/25 01:42:30;;;;;;;17.67;7.40;;;12.00;99.90;;;;;;5014093;28;20037;-78
2022/05/25 01:45:01;;;;;;;20.73;7.38;;;12.00;99.90;;;;;;5031910;28;20053;-78
2022/05/25 01:47:30;;;;;;;19.52;8.73;;;12.00;99.90;;;;;;5032844;28;20101;-78
2022/05/25 01:50:14;;;;;;;19.90;9.60;;;12.00;99.90;;;;;;5014254;28;20144;-78
2022/05/25 01:52:44;;;;;;;24.08;9.18;;;12.00;99.90;;;;;;5015913;28;20037;-78
2022/05/25 01:55:15;;;;;;;22.55;9.88;;;12.00;99.90;;;;;;5014299;28;20367;-78
2022/05/25 01:57:46;;;;;;;21.27;10.25;;;11.90;99.90;;;;;;5013546;28;20033;-78
2022/05/25 02:00:35;;;;;;;30.20;11.68;;;12.00;99.90;;;;;;5012324;28;20027;-78
2022/05/25 02:06:21;;;;;;;25.42;12.20;;;11.90;99.90;;;;;;5033528;28;20025;-78
2022/05/25 02:09:05;;;;;;;21.33;11.93;;;11.90;99.90;;;;;;5021429;28;20018;-78
2022/05/25 02:11:38;;;;;;;22.67;11.85;;;11.90;99.90;;;;;;5014106;28;20034;-78
2022/05/25 02:14:32;;;;;;;22.63;12.15;;;11.90;99.90;;;;;;5029001;28;20022;-77
2022/05/25 02:17:15;;;;;;;27.27;13.57;;;11.90;99.90;;;;;;5012894;28;20026;-78
2022/05/25 02:20:09;;;;;;;21.27;13.07;;;11.90;99.90;;;;;;5013214;28;20037;-78
2022/05/25 02:22:44;;;;;;;27.85;14.10;;;11.90;99.90;;;;;;5015548;28;20049;-78
2022/05/25 02:25:15;;;;;;;22.65;13.38;;;11.90;99.90;;;;;;5033194;28;20132;-78
2022/05/25 02:27:50;;;;;;;30.35;14.07;;;11.90;99.90;;;;;;5016047;28;20030;-78
2022/05/25 02:30:20;;;;;;;31.23;14.18;;;11.90;99.90;;;;;;5023463;28;20041;-78
2022/05/25 02:32:57;;;;;;;32.15;14.30;;;11.80;99.90;;;;;;5022870;28;20408;-78
2022/05/25 02:35:24;;;;;;;25.90;15.35;;;11.80;99.90;;;;;;5032841;28;20029;-78
2022/05/25 02:37:52;;;;;;;34.15;14.63;;;11.80;99.90;;;;;;5032419;28;20029;-78
2022/05/25 02:40:18;;;;;;;31.75;14.75;;;11.80;99.90;;;;;;5015191;28;20029;-78
2022/05/25 02:42:44;;;;;;;30.30;15.80;;;11.80;99.90;;;;;;5012699;28;20389;-78
2022/05/25 02:45:11;;;;;;;29.48;14.63;;;11.80;99.90;;;;;;5024693;28;20061;-78
2022/05/25 02:47:38;;;;;;;23.00;14.00;;;11.80;99.90;;;;;;5031351;28;20026;-78
2022/05/25 02:50:04;;;;;;;34.45;15.75;;;11.80;99.90;;;;;;5032307;28;20025;-78
2022/05/25 02:52:30;;;;;;;29.70;14.77;;;11.80;99.90;;;;;;5020828;28;20443;-78
2022/05/25 02:54:56;;;;;;;29.58;15.85;;;11.80;99.90;;;;;;5012753;28;20065;-77
2022/05/25 02:57:21;;;;;;;29.73;14.82;;;11.80;99.90;;;;;;5028380;28;20104;-78
2022/05/25 02:59:47;;;;;;;28.67;14.85;;;11.80;99.90;;;;;;5017976;28;20034;-78
2022/05/25 03:02:13;;;;;;;28.63;15.43;;;11.80;99.90;;;;;;5012746;28;20022;-79
2022/05/25 03:04:40;;;;;;;28.05;15.13;;;11.80;99.90;;;;;;5030755;28;20393;-77
2022/05/25 03:07:06;;;;;;;30.92;14.93;;;11.80;99.90;;;;;;5023122;28;20017;-78
2022/05/25 03:09:37;;;;;;;26.30;15.27;;;11.80;99.90;;;;;;5022158;28;20431;-78
2022/05/25 03:12:04;;;;;;;30.38;15.48;;;11.80;99.90;;;;;;5032258;28;20033;-78
2022/05/25 03:14:31;;;;;;;37.58;18.92;;;11.80;99.90;;;;;;5012980;28;20040;-78
2022/05/25 03:16:58;;;;;;;42.45;22.88;;;11.80;99.90;;;;;;5011992;28;20474;-77
2022/05/25 03:19:24;;;;;;;30.15;16.00;;;11.80;99.90;;;;;;5028363;28;20021;-78
2022/05/25 03:21:49;;;;;;;33.78;15.90;;;11.80;99.90;;;;;;5024461;28;20048;-78
2022/05/25 03:24:15;;;;;;;31.65;15.50;;;11.80;99.90;;;;;;5031535;28;20109;-78
2022/05/25 03:26:41;;;;;;;31.52;16.48;;;11.80;99.90;;;;;;5015196;28;20033;-77
2022/05/25 03:29:07;;;;;;;29.55;16.95;;;11.80;99.90;;;;;;5025564;28;20029;-78
2022/05/25 03:31:33;;;;;;;28.30;15.68;;;11.80;99.90;;;;;;5029873;28;20049;-78
2022/05/25 03:33:59;;;;;;;29.17;15.32;;;11.80;99.90;;;;;;5011510;28;20036;-78
2022/05/25 03:36:24;;;;;;;32.38;16.33;;;11.80;99.90;;;;;;5012136;28;20021;-77
2022/05/25 03:38:50;;;;;;;32.53;15.15;;;11.80;99.90;;;;;;5011454;28;20034;-77
2022/05/25 03:41:17;;;;;;;26.00;14.18;;;11.80;99.90;;;;;;5011152;28;20553;-78
2022/05/25 03:43:44;;;;;;;28.42;14.85;;;11.80;99.90;;;;;;5012581;28;20018;-78
2022/05/25 03:46:10;;;;;;;31.83;14.55;;;11.80;99.90;;;;;;5020437;28;20492;-78
2022/05/25 03:48:36;;;;;;;28.05;14.00;;;11.80;99.90;;;;;;5015752;28;20025;-78
2022/05/25 03:51:02;;;;;;;29.63;14.05;;;11.80;99.90;;;;;;5011592;28;20025;-77
2022/05/25 03:53:28;;;;;;;31.25;15.20;;;11.80;99.90;;;;;;5028294;28;20497;-78
2022/05/25 03:55:54;;;;;;;29.85;14.95;;;11.80;99.90;;;;;;5020695;28;20015;-77
2022/05/25 03:58:19;;;;;;;24.63;13.82;;;11.90;99.90;;;;;;5010192;28;20073;-78
2022/05/25 04:00:45;;;;;;;29.67;15.63;;;11.90;99.90;;;;;;5010799;28;20037;-78
2022/05/25 04:03:15;;;;;;;33.00;15.13;;;11.90;99.90;;;;;;5011647;28;20053;-77
2022/05/25 04:05:41;;;;;;;28.45;15.05;;;11.90;99.90;;;;;;5011107;28;20516;-77
2022/05/25 04:08:07;;;;;;;35.42;16.38;;;11.90;99.90;;;;;;5029987;28;20033;-77
2022/05/25 04:10:33;;;;;;;34.20;16.50;;;12.00;99.90;;;;;;5030383;28;20025;-77
2022/05/25 04:12:59;;;;;;;34.92;17.75;;;12.00;99.90;;;;;;5020835;28;20504;-77
2022/05/25 04:15:27;;;;;;;36.05;17.67;;;12.10;99.90;;;;;;5020931;28;20079;-77
2022/05/25 04:17:53;;;;;;;35.35;17.02;;;12.10;99.90;;;;;;5031925;28;20021;-77
2022/05/25 04:20:20;;;;;;;33.05;17.75;;;12.10;99.90;;;;;;5035001;28;20485;-77
2022/05/25 04:22:46;;;;;;;33.95;17.63;;;12.20;99.90;;;;;;5025748;28;20018;-77
2022/05/25 04:25:15;;;;;;;34.05;16.70;;;12.20;99.90;;;;;;5021881;28;20026;-77
2022/05/25 04:27:43;;;;;;;30.60;16.55;;;12.30;99.90;;;;;;5023941;28;20530;-77
2022/05/25 04:30:11;;;;;;;31.88;16.30;;;12.30;99.90;;;;;;5010548;28;20034;-78
2022/05/25 04:32:37;;;;;;;30.30;17.00;;;12.40;99.90;;;;;;5011856;28;20050;-77
2022/05/25 04:35:03;;;;;;;31.60;16.17;;;12.40;99.90;;;;;;5011349;28;20037;-77
2022/05/25 04:40:13;;;;;;;28.75;16.75;;;12.50;99.90;;;;;;5010835;28;20044;-76
2022/05/25 04:42:40;;;;;;;30.85;17.67;;;12.50;99.90;;;;;;5009159;28;20550;-77
2022/05/25 04:45:06;;;;;;;32.75;17.30;;;12.50;99.90;;;;;;5010801;28;20021;-77
2022/05/25 04:47:34;;;;;;;33.67;17.20;;;12.50;99.90;;;;;;5010728;28;20474;-77
2022/05/25 04:50:00;;;;;;;32.58;17.77;;;12.60;99.90;;;;;;5010186;28;20026;-77
2022/05/25 04:52:27;;;;;;;32.45;16.55;;;12.60;99.90;;;;;;5011507;28;20014;-77
2022/05/25 04:54:53;;;;;;;31.73;16.83;;;12.60;99.90;;;;;;5010759;28;20022;-77
2022/05/25 04:57:23;;;;;;;33.17;17.15;;;12.60;99.90;;;;;;5014307;28;20022;-76
2022/05/25 04:59:54;;;;;;;36.05;17.10;;;12.70;99.90;;;;;;5011294;28;20517;-78
2022/05/25 05:02:20;;;;;;;32.65;17.85;;;12.70;99.90;;;;;;5025180;28;20068;-77
2022/05/25 05:04:47;;;;;;;34.42;18.50;;;12.80;99.90;;;;;;5026180;28;20493;-75
2022/05/25 05:07:14;;;;;;;41.58;22.52;;;12.90;99.90;;;;;;5026484;28;20030;-76
2022/05/25 05:09:41;;;;;;;43.53;19.85;;;12.90;99.90;;;;;;5032899;28;20041;-76
2022/05/25 05:12:08;;;;;;;35.38;18.30;;;12.90;99.90;;;;;;5019139;28;20037;-78
2022/05/25 05:14:33;;;;;;;34.17;18.17;;;13.00;99.90;;;;;;5025187;28;20461;-76
2022/05/25 05:17:02;;;;;;;32.65;17.73;;;13.00;99.90;;;;;;5026222;28;20094;-77
2022/05/25 05:19:28;;;;;;;33.08;18.67;;;13.00;99.90;;;;;;5014287;28;20034;-76
2022/05/25 05:21:55;;;;;;;35.42;18.90;;;13.00;99.90;;;;;;5021040;28;20120;-77
2022/05/25 05:24:24;;;;;;;36.72;20.80;;;13.00;99.90;;;;;;5011048;28;20116;-77
2022/05/25 05:26:50;;;;;;;38.80;23.58;;;13.10;99.90;;;;;;5013094;28;20022;-76
2022/05/25 05:29:16;;;;;;;42.03;21.55;;;13.10;99.90;;;;;;5018826;28;20535;-76
2022/05/25 05:31:41;;;;;;;40.15;21.67;;;13.10;99.90;;;;;;5015835;28;20053;-77
2022/05/25 05:34:07;;;;;;;38.85;20.73;;;13.10;99.90;;;;;;5011955;28;20076;-76
2022/05/25 05:37:05;;;;;;;40.45;21.27;;;13.20;99.90;;;;;;5014088;28;20522;-76
2022/05/25 05:39:36;;;;;;;33.67;20.88;;;13.20;99.90;;;;;;5019385;28;20041;-77
2022/05/25 05:42:09;;;;;;;34.22;21.13;;;13.30;99.90;;;;;;5019853;28;20116;-77
2022/05/25 05:44:45;;;;;;;40.33;22.75;;;13.30;99.90;;;;;;5030188;28;20040;-76
2022/05/25 05:47:14;;;;;;;37.97;20.80;;;13.40;99.90;;;;;;5032095;28;20049;-79
2022/05/25 05:49:40;;;;;;;37.90;20.65;;;13.50;99.90;;;;;;5030947;28;20060;-77
2022/05/25 05:52:07;;;;;;;36.40;21.75;;;13.50;99.90;;;;;;5022689;28;20033;-77
2022/05/25 05:54:33;;;;;;;41.00;20.95;;;13.60;99.90;;;;;;5032361;28;20055;-77
2022/05/25 05:56:59;;;;;;;30.38;18.95;;;13.70;99.90;;;;;;5018676;28;20030;-76
2022/05/25 05:59:25;;;;;;;28.38;19.00;;;13.70;99.90;;;;;;5013876;28;20030;-77
2022/05/25 06:01:51;;;;;;;36.58;19.75;;;13.80;99.90;;;;;;5012490;28;20034;-77
2022/05/25 06:04:16;;;;;;;36.40;21.60;;;13.90;99.90;;;;;;5013107;28;20598;-77
2022/05/25 06:06:42;;;;;;;35.08;22.90;;;14.00;99.90;;;;;;5022103;28;20076;-76
2022/05/25 06:09:08;;;;;;;36.83;23.23;;;14.00;99.90;;;;;;5014166;28;20026;-77
2022/05/25 06:11:41;;;;;;;35.05;22.25;;;14.00;99.90;;;;;;5020145;28;20030;-78
2022/05/25 06:14:07;;;;;;;35.90;23.60;;;14.10;99.90;;;;;;5024462;28;20057;-77
2022/05/25 06:19:26;;;;;;;38.83;24.17;;;14.10;99.90;;;;;;5013321;28;20485;-78
2022/05/25 06:22:13;;;;;;;45.03;24.75;;;14.20;99.90;;;;;;5013623;28;20030;-77
2022/05/25 06:24:42;;;;;;;41.10;22.85;;;14.20;99.90;;;;;;5013465;28;20040;-78
2022/05/25 06:27:09;;;;;;;36.13;22.55;;;14.20;99.90;;;;;;5027285;28;20026;-75
2022/05/25 06:29:39;;;;;;;34.83;22.52;;;14.20;99.90;;;;;;5030891;28;20025;-78
2022/05/25 06:32:09;;;;;;;37.47;23.33;;;14.20;99.90;;;;;;5020470;28;20042;-78
2022/05/25 06:34:35;;;;;;;41.60;23.45;;;14.20;99.90;;;;;;5023096;28;20079;-75
2022/05/25 06:37:01;;;;;;;36.90;23.80;;;14.20;99.90;;;;;;5013407;28;20018;-75
2022/05/25 06:39:27;;;;;;;42.90;23.83;;;14.10;99.90;;;;;;5019253;28;20505;-75
2022/05/25 06:41:53;;;;;;;37.20;23.50;;;14.20;99.90;;;;;;5025064;28;20080;-75
2022/05/25 06:44:19;;;;;;;34.28;23.10;;;14.10;99.90;;;;;;5022897;28;20022;-75
2022/05/25 06:46:45;;;;;;;40.15;24.33;;;14.20;99.90;;;;;;5018685;28;20667;-75
2022/05/25 06:49:11;;;;;;;36.40;24.88;;;14.20;99.90;;;;;;5012160;28;20599;-77
2022/05/25 06:51:37;;;;;;;37.10;24.15;;;14.30;99.90;;;;;;5029101;28;20027;-76
2022/05/25 06:54:05;;;;;;;36.10;23.80;;;14.30;99.90;;;;;;5016891;28;20090;-76
2022/05/25 06:56:30;;;;;;;39.28;25.40;;;14.40;99.90;;;;;;5014245;28;20034;-76
2022/05/25 06:58:57;;;;;;;39.40;23.00;;;14.40;99.90;;;;;;5014713;28;20022;-77
2022/05/25 07:01:24;;;;;;;37.00;23.27;;;14.50;99.90;;;;;;5019698;28;20115;-76
2022/05/25 07:03:52;;;;;;;35.33;24.45;;;14.50;99.90;;;;;;5020215;28;20375;-76
2022/05/25 07:06:18;;;;;;;39.25;23.83;;;14.60;99.90;;;;;;5018554;28;20040;-77
2022/05/25 07:08:45;;;;;;;29.13;21.85;;;14.60;99.90;;;;;;5020165;28;20109;-77
2022/05/25 07:11:11;;;;;;;36.17;23.45;;;14.60;99.90;;;;;;5021423;28;20362;-76
2022/05/25 07:13:37;;;;;;;34.40;23.08;;;14.70;99.90;;;;;;5017145;28;20540;-76
2022/05/25 07:16:09;;;;;;;32.55;22.52;;;14.70;99.90;;;;;;5015934;28;20041;-76
2022/05/25 07:18:36;;;;;;;34.00;20.33;;;14.80;99.90;;;;;;5017425;28;20029;-76
2022/05/25 07:21:08;;;;;;;28.38;20.20;;;14.90;99.90;;;;;;5016029;28;20692;-76
2022/05/25 07:23:39;;;;;;;31.70;19.88;;;15.00;99.90;;;;;;5023087;28;20053;-77
2022/05/25 07:26:06;;;;;;;25.35;19.35;;;15.10;99.90;;;;;;5018875;28;20021;-76
2022/05/25 07:28:33;;;;;;;32.20;19.55;;;15.10;99.90;;;;;;5014111;28;20382;-76
2022/05/25 07:31:03;;;;;;;31.15;20.08;;;15.10;99.90;;;;;;5014348;28;20022;-76
2022/05/25 07:33:29;;;;;;;28.48;18.10;;;15.20;99.90;;;;;;5028110;28;20027;-75
2022/05/25 07:35:55;;;;;;;26.27;16.77;;;15.30;99.90;;;;;;5016830;28;20026;-76
2022/05/25 07:38:21;;;;;;;29.50;17.50;;;15.30;99.90;;;;;;5022213;28;20066;-77
2022/05/25 07:40:47;;;;;;;24.25;16.63;;;15.40;99.90;;;;;;5015611;28;20032;-77
2022/05/25 07:43:17;;;;;;;28.58;16.50;;;15.40;99.90;;;;;;5012938;28;20022;-77
2022/05/25 07:45:45;;;;;;;21.00;12.45;;;15.50;99.90;;;;;;5016324;28;20449;-77
2022/05/25 07:48:11;;;;;;;20.55;11.45;;;15.50;99.90;;;;;;5020227;28;20029;-77
2022/05/25 07:50:37;;;;;;;17.85;11.75;;;15.50;99.90;;;;;;5015811;28;20026;-75
2022/05/25 07:53:55;;;;;;;18.48;11.57;;;15.60;99.90;;;;;;5016302;28;20029;-77
2022/05/25 07:55:50;;;;;;;19.58;11.27;;;15.80;99.90;;;;;;5014956;28;20036;-80
2022/05/25 07:58:16;;;;;;;16.58;9.77;;;16.00;99.90;;;;;;5018580;28;20029;-79
2022/05/25 08:00:41;;;;;;;13.45;7.38;;;16.10;99.90;;;;;;5016352;28;20022;-77
2022/05/25 08:05:54;;;;;;;11.27;6.50;;;16.20;99.90;;;;;;5029273;28;20082;-76
2022/05/25 08:08:24;;;;;;;11.75;5.90;;;16.30;99.90;;;;;;5014974;28;20022;-76
2022/05/25 08:11:06;;;;;;;12.63;5.35;;;16.30;99.90;;;;;;5014810;28;20028;-77
2022/05/25 08:13:35;;;;;;;13.05;4.90;;;16.50;99.90;;;;;;5016016;28;20028;-77
2022/05/25 08:16:02;;;;;;;13.13;4.78;;;16.60;99.90;;;;;;5011731;28;20018;-76
2022/05/25 08:18:27;;;;;;;13.63;4.57;;;16.60;99.90;;;;;;5012311;28;20026;-76
2022/05/25 08:20:53;;;;;;;11.02;4.30;;;16.60;99.90;;;;;;5012007;28;20428;-77
2022/05/25 08:23:18;;;;;;;14.27;4.40;;;16.50;99.90;;;;;;5011763;28;20025;-77
2022/05/25 08:25:45;;;;;;;10.93;4.00;;;16.60;99.90;;;;;;5036248;28;20022;-77
2022/05/25 08:28:11;;;;;;;13.05;4.25;;;16.70;99.90;;;;;;5017459;28;20025;-76
2022/05/25 08:30:39;;;;;;;7.63;3.75;;;16.80;99.90;;;;;;5016217;28;20029;-76
2022/05/25 08:33:06;;;;;;;11.35;4.10;;;17.00;99.90;;;;;;5018953;28;20499;-77
2022/05/25 08:35:32;;;;;;;10.80;3.78;;;17.20;99.90;;;;;;5014087;28;20446;-76
2022/05/25 08:37:58;;;;;;;12.95;3.47;;;17.30;99.90;;;;;;5018909;28;20037;-77
2022/05/25 08:40:27;;;;;;;7.95;3.40;;;17.40;99.90;;;;;;5017196;28;20038;-77
2022/05/25 08:43:08;;;;;;;10.23;2.90;;;17.40;99.90;;;;;;5018412;28;20122;-78
2022/05/25 08:45:57;;;;;;;10.13;2.75;;;17.40;99.90;;;;;;5019204;28;20022;-76
2022/05/25 08:48:25;;;;;;;9.35;3.20;;;17.40;99.90;;;;;;5020133;28;20018;-77
2022/05/25 08:51:00;;;;;;;8.20;2.50;;;17.50;99.90;;;;;;5017105;28;20018;-77
2022/05/25 08:53:26;;;;;;;6.95;1.80;;;17.50;99.90;;;;;;5021860;28;20484;-77
2022/05/25 08:56:26;;;;;;;9.05;1.42;;;17.50;99.90;;;;;;5012827;28;20600;-77
2022/05/25 08:59:13;;;;;;;11.00;1.80;;;17.30;99.90;;;;;;5019907;28;20121;-76
2022/05/25 09:02:10;;;;;;;6.53;1.20;;;17.10;99.90;;;;;;5019856;28;20017;-76
2022/05/25 09:04:48;;;;;;;9.02;1.50;;;17.10;99.90;;;;;;5017089;28;20044;-77
2022/05/25 09:07:24;;;;;;;7.00;1.25;;;17.20;99.90;;;;;;5022116;28;20458;-76
2022/05/25 09:09:52;;;;;;;6.65;1.50;;;17.20;99.90;;;;;;5024202;28;20088;-75
2022/05/25 09:12:29;;;;;;;5.63;1.20;;;17.00;99.90;;;;;;5011648;28;20037;-77
2022/05/25 09:15:23;;;;;;;8.02;1.40;;;16.90;99.90;;;;;;5024073;28;20022;-76
2022/05/25 09:18:10;;;;;;;10.15;1.55;;;16.90;99.90;;;;;;5026726;28;20037;-75
2022/05/25 09:20:44;;;;;;;7.68;1.30;;;16.90;99.90;;;;;;5014090;28;20326;-77
2022/05/25 09:23:13;;;;;;;5.10;1.20;;;16.80;99.90;;;;;;5014591;28;20497;-76
2022/05/25 09:25:40;;;;;;;5.47;1.10;;;16.80;99.90;;;;;;5014272;28;20079;-76
2022/05/25 09:28:16;;;;;;;9.27;1.10;;;16.80;99.90;;;;;;5021331;28;20429;-75
2022/05/25 09:30:45;;;;;;;6.40;0.90;;;17.00;99.90;;;;;;5028652;28;20087;-77
2022/05/25 09:33:18;;;;;;;8.23;1.30;;;17.20;99.90;;;;;;5018262;28;20132;-76
2022/05/25 09:35:50;;;;;;;6.95;1.05;;;17.50;99.90;;;;;;5021306;28;20030;-76
2022/05/25 09:38:34;;;;;;;7.07;1.13;;;17.60;99.90;;;;;;5023299;28;20037;-77
2022/05/25 09:41:06;;;;;;;8.48;1.30;;;17.90;99.70;;;;;;5019504;28;20212;-77
2022/05/25 09:43:31;;;;;;;8.10;1.50;;;18.00;98.40;;;;;;5012273;28;20026;-77
2022/05/25 09:46:03;;;;;;;2.70;0.95;;;18.10;97.70;;;;;;5011056;28;20028;-77
2022/05/25 09:48:32;;;;;;;5.43;1.50;;;18.10;97.00;;;;;;5013505;28;20029;-77
2022/05/25 09:51:14;;;;;;;8.63;1.05;;;18.10;95.40;;;;;;5031515;28;20029;-77
2022/05/25 09:53:49;;;;;;;4.25;0.85;;;18.00;92.90;;;;;;5015321;28;20033;-78
2022/05/25 09:56:19;;;;;;;4.97;1.23;;;18.00;93.20;;;;;;5020771;28;20080;-77
2022/05/25 09:58:49;;;;;;;5.65;0.70;;;18.00;92.10;;;;;;5015400;28;20042;-77
2022/05/25 10:01:28;;;;;;;4.38;1.00;;;18.00;92.10;;;;;;5013053;28;20030;-77
2022/05/25 10:03:54;;;;;;;5.60;0.90;;;18.00;92.80;;;;;;5014451;28;20101;-77
2022/05/25 10:06:29;;;;;;;5.35;1.00;;;18.10;93.80;;;;;;5017891;28;20101;-78
2022/05/25 10:09:28;;;;;;;5.07;0.70;;;18.20;93.60;;;;;;5015015;28;20424;-78
2022/05/25 10:12:21;;;;;;;10.38;1.10;;;18.10;92.90;;;;;;5016255;28;20276;-77
2022/05/25 10:14:59;;;;;;;10.10;1.20;;;18.30;94.00;;;;;;5012949;28;20033;-77
2022/05/25 10:17:46;;;;;;;4.80;0.82;;;18.30;93.10;;;;;;5013065;28;20018;-77
2022/05/25 10:20:45;;;;;;;4.13;0.65;;;18.30;92.60;;;;;;5012025;28;20060;-77
2022/05/25 10:23:21;;;;;;;15.45;1.10;;;18.10;91.20;;;;;;5009030;28;20045;-77
2022/05/25 10:25:53;;;;;;;8.38;0.90;;;18.00;91.60;;;;;;5032916;28;20029;-78
2022/05/25 10:28:32;;;;;;;4.32;1.00;;;18.10;92.30;;;;;;5012980;28;20029;-77
2022/05/25 10:36:58;;;;;;;2.53;0.77;;;18.30;93.10;;;;;;5012300;28;20052;-76
2022/05/25 10:39:24;;;;;;;9.20;1.05;;;18.40;92.50;;;;;;5022715;28;20040;-78
2022/05/25 10:42:23;;;;;;;4.32;0.93;;;18.50;92.90;;;;;;5012869;28;20100;-77
2022/05/25 10:44:59;;;;;;;9.13;1.00;;;18.70;91.40;;;;;;5012630;28;20049;-77
2022/05/25 10:47:51;;;;;;;5.65;1.00;;;18.70;91.50;;;;;;5012203;28;20482;-78
2022/05/25 10:50:45;;;;;;;5.38;0.93;;;18.50;90.70;;;;;;5031633;28;20032;-77
2022/05/25 10:53:32;;;;;;;7.22;1.20;;;18.20;92.90;;;;;;5032667;28;20062;-78
2022/05/25 10:56:26;;;;;;;5.47;0.82;;;18.00;93.10;;;;;;5020533;28;20111;-77
2022/05/25 10:59:17;;;;;;;6.15;1.10;;;18.10;93.70;;;;;;5010999;28;20041;-78
2022/05/25 11:02:31;;;;;;;6.93;1.17;;;18.20;94.80;;;;;;5011679;28;20038;-79
2022/05/25 11:05:09;;;;;;;7.80;1.05;;;18.50;94.70;;;;;;5014357;28;20038;-77
2022/05/25 11:07:37;;;;;;;6.85;1.17;;;18.70;94.60;;;;;;5012769;28;20075;-76
2022/05/25 11:10:13;;;;;;;7.85;1.40;;;19.00;94.20;;;;;;5013885;28;20033;-78
2022/05/25 11:13:18;;;;;;;6.72;1.20;;;19.10;93.40;;;;;;5018417;28;20032;-76
2022/05/25 11:15:55;;;;;;;10.38;1.05;;;19.00;90.40;;;;;;5027724;28;20021;-76
2022/05/25 11:18:29;;;;;;;3.67;0.70;;;19.00;90.00;;;;;;5015366;28;20033;-76
2022/05/25 11:21:07;;;;;;;8.03;0.90;;;19.00;87.50;;;;;;5024355;28;20096;-77
2022/05/25 11:24:06;;;;;;;7.15;1.60;;;18.90;87.80;;;;;;5012376;28;20633;-78
2022/05/25 11:26:38;;;;;;;4.00;0.90;;;18.80;89.60;;;;;;5010812;28;20470;-76
2022/05/25 11:29:18;;;;;;;12.35;0.90;;;18.80;89.70;;;;;;5025614;28;20063;-77
2022/05/25 11:32:03;;;;;;;9.27;0.80;;;18.80;88.10;;;;;;5030801;28;20053;-76
2022/05/25 11:34:54;;;;;;;6.85;1.05;;;18.90;85.40;;;;;;5016959;28;20076;-76
2022/05/25 11:37:41;;;;;;;7.90;0.95;;;18.90;84.70;;;;;;5015018;28;20058;-75
2022/05/25 11:40:25;;;;;;;7.82;1.02;;;18.90;80.30;;;;;;5019287;28;20104;-79
2022/05/25 11:43:12;;;;;;;4.93;0.95;;;18.90;80.70;;;;;;5011940;28;20333;-76
2022/05/25 11:45:48;;;;;;;8.52;1.17;;;18.90;82.20;;;;;;5012737;28;20033;-77
2022/05/25 11:48:41;;;;;;;5.80;1.20;;;19.00;82.60;;;;;;5011607;28;20355;-77
2022/05/25 11:51:19;;;;;;;13.02;1.30;;;19.10;82.40;;;;;;5011520;28;20060;-77
2022/05/25 11:54:17;;;;;;;8.32;1.30;;;19.20;82.80;;;;;;5011367;28;20528;-75
2022/05/25 11:57:05;;;;;;;9.75;1.23;;;19.20;81.80;;;;;;5010224;28;20049;-75
2022/05/25 11:59:52;;;;;;;12.43;1.50;;;19.20;82.80;;;;;;5011081;28;20026;-76
2022/05/25 12:02:57;;;;;;;13.25;1.70;;;19.10;83.30;;;;;;5013521;28;20532;-77
2022/05/25 12:05:49;;;;;;;6.10;1.70;;;19.00;85.00;;;;;;5027060;28;20168;-76
2022/05/25 12:08:26;;;;;;;9.82;1.80;;;18.90;87.50;;;;;;5030236;28;20473;-76
2022/05/25 12:11:15;;;;;;;6.82;1.55;;;19.00;89.00;;;;;;5012297;28;20096;-76
2022/05/25 12:13:46;;;;;;;6.50;1.73;;;19.00;90.40;;;;;;5028048;28;20067;-76
2022/05/25 12:16:34;;;;;;;8.07;1.60;;;18.90;90.80;;;;;;5010974;28;20155;-77
2022/05/25 12:19:10;;;;;;;7.43;1.65;;;18.90;91.60;;;;;;5011108;28;20033;-77
2022/05/25 12:21:43;;;;;;;14.68;1.77;;;18.80;92.60;;;;;;5019617;28;20028;-77
2022/05/25 12:24:38;;;;;;;11.43;1.45;;;18.70;93.00;;;;;;5026987;28;20104;-76
2022/05/25 12:27:07;;;;;;;16.02;4.00;;;18.70;93.80;;;;;;5028146;28;20025;-77
2022/05/25 12:29:42;;;;;;;12.65;1.83;;;18.60;94.70;;;;;;5030992;28;20417;-77
2022/05/25 12:32:08;;;;;;;10.15;1.77;;;18.60;95.00;;;;;;5016394;28;20053;-76
2022/05/25 12:34:46;;;;;;;13.05;1.55;;;18.50;95.80;;;;;;5016500;28;20056;-78
2022/05/25 12:37:18;;;;;;;16.55;2.20;;;18.40;96.40;;;;;;5019849;28;20451;-77
2022/05/25 12:39:47;;;;;;;9.30;1.73;;;18.30;97.00;;;;;;5010150;28;20470;-78
2022/05/25 12:42:25;;;;;;;12.20;1.77;;;18.30;97.10;;;;;;5013685;28;20057;-78
2022/05/25 12:50:41;;;;;;;9.45;1.92;;;18.30;97.30;;;;;;5017033;28;20037;-76
2022/05/25 12:53:39;;;;;;;5.22;1.45;;;18.30;97.20;;;;;;5018362;28;20038;-77
2022/05/25 12:56:23;;;;;;;12.98;1.88;;;18.30;96.40;;;;;;4990360;28;20053;-76
2022/05/25 12:58:52;;;;;;;7.78;1.92;;;18.40;95.60;;;;;;4992450;28;20030;-77
2022/05/25 13:01:23;;;;;;;8.57;1.45;;;18.30;95.90;;;;;;4994471;28;20081;-77
2022/05/25 13:03:49;;;;;;;13.30;2.05;;;18.40;96.30;;;;;;4994607;28;20100;-76
2022/05/25 13:06:18;;;;;;;18.63;2.00;;;18.60;96.30;;;;;;4992245;28;20128;-77
2022/05/25 13:08:47;;;;;;;10.95;1.40;;;18.50;94.60;;;;;;4992003;28;20046;-77
2022/05/25 13:11:46;;;;;;;13.13;1.73;;;18.40;93.60;;;;;;4993354;28;20035;-76
2022/05/25 13:14:17;;;;;;;15.50;1.70;;;18.50;93.70;;;;;;4993414;28;20303;-77
2022/05/25 13:16:42;;;;;;;12.05;1.50;;;18.60;93.50;;;;;;4996954;28;20038;-76
2022/05/25 13:19:28;;;;;;;11.75;1.50;;;18.70;92.70;;;;;;4997228;28;20054;-77
2022/05/25 13:22:03;;;;;;;10.63;2.00;;;18.70;90.80;;;;;;4994846;28;20327;-76
2022/05/25 13:24:50;;;;;;;11.77;1.30;;;18.60;87.40;;;;;;5000518;28;20038;-75
2022/05/25 13:27:20;;;;;;;9.00;1.20;;;18.60;88.40;;;;;;5007075;28;20022;-77
2022/05/25 13:30:17;;;;;;;9.00;1.20;;;18.60;85.40;;;;;;4998937;28;20046;-77
2022/05/25 13:33:00;;;;;;;19.40;1.63;;;18.70;86.70;;;;;;5013494;28;20528;-76